Date,TemperatureHighF,TemperatureAvgF,TemperatureLowF,DewpointHighF,DewpointAvgF,DewpointLowF,HumidityHigh,HumidityAvg,HumidityLow,PressureMaxIn,PressureMinIn,WindSpeedMaxMPH,WindSpeedAvgMPH,GustSpeedMaxMPH,PrecipitationSumIn
2013-3-1,48.0,39.0,29.0,30.0,27.0,25.0,89,64,41,0.00,40.00,5,2,65,0.00
2013-3-2,45.0,38.6,28.0,29.0,24.3,18.0,80,57,43,0.00,40.00,4,1,15,0.00
2013-3-3,50.0,37.6,28.0,22.0,18.9,15.0,71,48,32,0.00,40.00,5,3,32,0.00
2013-3-4,51.0,36.4,25.0,17.0,12.7,10.0,60,40,19,0.00,40.00,8,3,109,0.00
2013-3-5,52.0,40.9,31.0,43.0,28.0,14.0,98,65,27,0.00,40.00,6,2,14,0.58
2013-3-6,40.0,37.2,34.0,39.0,34.3,29.0,98,90,65,0.00,40.00,12,7,29,0.44
2013-3-7,49.0,41.6,32.0,32.0,27.4,23.0,77,58,45,0.00,40.00,6,4,20,0.03
2013-3-8,55.0,40.8,26.0,27.0,24.6,21.0,97,57,30,0.00,40.00,8,4,25,0.00
2013-3-9,64.0,47.4,33.0,28.0,24.5,21.0,77,45,19,0.00,40.00,4,2,12,0.00
2013-3-10,68.0,52.2,36.0,32.0,21.3,15.0,63,34,13,0.00,40.00,5,2,20,0.00
2013-3-11,71.0,54.9,40.0,49.0,43.2,32.0,98,68,41,0.00,40.00,8,3,16,0.00
2013-3-12,69.0,60.1,49.0,64.0,51.6,31.0,99,76,46,0.00,40.00,6,4,18,1.02
2013-3-13,57.0,46.3,32.0,33.0,25.7,16.0,82,47,25,0.00,40.00,7,4,26,0.64
2013-3-14,52.0,39.7,27.0,20.0,16.5,14.0,69,41,23,0.00,40.00,7,3,21,0.00
2013-3-15,63.0,45.6,28.0,31.0,22.2,13.0,64,42,23,0.00,40.00,4,1,107,0.00
2013-3-16,78.0,58.8,42.0,58.0,41.7,31.0,99,58,30,0.00,40.00,6,1,25,0.02
2013-3-17,54.0,45.9,37.0,54.0,42.1,35.0,99,87,71,0.00,40.00,4,2,13,0.03
2013-3-18,42.0,38.7,35.0,42.0,37.9,34.0,99,98,98,0.00,40.00,3,2,12,0.13
2013-3-19,70.0,50.2,38.0,45.0,31.4,7.0,99,62,15,0.00,40.00,6,3,20,0.10
2013-3-20,59.0,47.0,37.0,20.0,10.7,5.0,49,24,15,0.00,40.00,5,2,21,0.01
2013-3-21,45.0,37.3,29.0,32.0,18.7,7.0,86,50,23,0.00,40.00,8,3,26,0.00
2013-3-22,54.0,36.9,21.0,14.0,11.0,5.0,73,38,15,0.00,40.00,5,2,17,0.00
2013-3-23,59.0,43.7,33.0,28.0,21.4,12.0,71,43,22,0.00,40.00,4,1,13,0.00
2013-3-24,40.0,36.7,33.0,38.0,32.7,27.0,98,87,62,0.00,40.00,6,2,18,0.74
2013-3-25,48.0,38.4,33.0,36.0,30.1,22.0,98,76,42,0.00,40.00,8,3,57,0.05
2013-3-26,49.0,39.5,30.0,32.0,26.6,23.0,84,62,41,0.00,40.00,6,2,16,0.02
2013-3-27,52.0,41.3,31.0,27.0,23.3,18.0,78,52,28,0.00,40.00,8,4,133,0.00
2013-3-28,56.0,51.0,39.0,23.0,21.5,17.0,50,32,24,0.00,40.00,7,4,33,0.00
2013-3-29,63.0,47.6,32.0,27.0,24.4,22.0,72,44,22,0.00,40.00,5,2,38,0.00
2013-3-30,69.0,52.8,37.0,33.0,27.8,24.0,70,42,20,0.00,40.00,6,2,175,0.00
2013-3-31,68.0,54.7,46.0,58.0,48.1,33.0,99,80,50,0.00,40.00,5,2,15,0.45